createdAt,value
2023-04-29T00:00:23.442Z,58.63
2023-04-29T00:02:54.169Z,58.18
2023-04-29T00:05:24.711Z,57.75
2023-04-29T00:07:56.036Z,58.75
2023-04-29T00:10:26.387Z,57.85
2023-04-29T00:12:57.178Z,58.49
2023-04-29T00:15:27.610Z,58.16
2023-04-29T00:17:58.204Z,57.93
2023-04-29T00:20:28.718Z,58.63
2023-04-29T00:22:59.089Z,58.22
2023-04-29T00:25:29.907Z,57.68
2023-04-29T00:28:03.519Z,58.52
2023-04-29T00:30:38.719Z,59.07
2023-04-29T00:35:39.378Z,59.22
2023-04-29T00:38:10.136Z,58.21
2023-04-29T00:40:41.036Z,59.52
2023-04-29T00:43:11.961Z,58.56
2023-04-29T00:45:42.442Z,59.46
2023-04-29T00:48:12.811Z,59.02
2023-04-29T00:50:44.150Z,58.89
2023-04-29T00:53:14.843Z,58.48
2023-04-29T00:55:49.602Z,58.92
2023-04-29T00:58:21.641Z,59.23
2023-04-29T01:00:53.437Z,60.22
2023-04-29T01:03:25.854Z,59.01
2023-04-29T01:06:16.120Z,59.78
2023-04-29T01:09:23.751Z,58.46
2023-04-29T01:12:31.944Z,59.32
2023-04-29T01:15:11.226Z,59.20
2023-04-29T01:18:10.948Z,59.64
2023-04-29T01:20:41.749Z,59.12
2023-04-29T01:23:12.945Z,59.79
2023-04-29T01:25:45.207Z,59.75
2023-04-29T01:29:00.152Z,59.87
2023-04-29T01:31:48.496Z,59.58
2023-04-29T01:34:37.093Z,60.09
2023-04-29T01:37:16.945Z,60.12
2023-04-29T01:40:14.227Z,60.06
2023-04-29T01:43:06.044Z,59.45
2023-04-29T01:45:43.692Z,60.04
2023-04-29T01:48:16.176Z,60.06
2023-04-29T01:50:47.599Z,59.36
2023-04-29T01:53:19.857Z,59.44
2023-04-29T01:55:50.566Z,59.57
2023-04-29T01:58:23.661Z,59.06
2023-04-29T02:01:11.973Z,59.27
2023-04-29T02:03:43.023Z,59.94
2023-04-29T02:06:14.761Z,59.52
2023-04-29T02:08:45.600Z,58.81
2023-04-29T02:11:16.228Z,59.12
2023-04-29T02:13:46.658Z,58.10
2023-04-29T02:16:20.532Z,58.70
2023-04-29T02:18:59.024Z,58.28
2023-04-29T02:21:29.976Z,58.14
2023-04-29T02:24:04.153Z,58.68
2023-04-29T02:26:35.940Z,58.06
2023-04-29T02:29:06.597Z,58.64
2023-04-29T02:31:37.156Z,58.17
2023-04-29T02:34:07.569Z,57.65
2023-04-29T02:36:37.834Z,58.92
2023-04-29T02:39:08.261Z,57.95
2023-04-29T02:41:38.631Z,58.10
2023-04-29T02:44:09.100Z,57.43
2023-04-29T02:46:42.392Z,57.67
2023-04-29T02:49:13.478Z,58.60
2023-04-29T02:51:44.047Z,57.86
2023-04-29T02:54:14.305Z,58.09
2023-04-29T02:56:45.707Z,57.66
2023-04-29T02:59:17.025Z,57.79
2023-04-29T03:01:47.803Z,57.76
2023-04-29T03:04:19.241Z,57.15
2023-04-29T03:06:51.253Z,57.73
2023-04-29T03:09:23.166Z,57.43
2023-04-29T03:11:54.585Z,57.57
2023-04-29T03:14:25.264Z,57.24
2023-04-29T03:16:57.940Z,57.98
2023-04-29T03:19:28.364Z,57.61
2023-04-29T03:21:58.759Z,57.48
2023-04-29T03:24:29.975Z,57.75
2023-04-29T03:27:04.155Z,57.41
2023-04-29T03:29:36.310Z,57.99
2023-04-29T03:32:06.874Z,57.29
2023-04-29T03:34:37.560Z,57.73
2023-04-29T03:37:21.493Z,57.25
2023-04-29T03:39:58.185Z,57.20
2023-04-29T03:42:29.092Z,57.24
2023-04-29T03:44:59.610Z,57.68
2023-04-29T03:47:30.120Z,57.80
2023-04-29T03:50:00.596Z,57.69
2023-04-29T03:52:31.267Z,58.07
2023-04-29T03:55:06.569Z,57.95
2023-04-29T03:57:37.139Z,58.15
2023-04-29T04:00:08.601Z,58.36
2023-04-29T04:02:51.832Z,57.50
2023-04-29T04:05:26.612Z,58.23
2023-04-29T04:08:02.554Z,58.19
2023-04-29T04:10:47.820Z,58.07
2023-04-29T04:13:30.187Z,58.16
2023-04-29T04:16:01.334Z,58.02
2023-04-29T04:18:33.750Z,57.78
2023-04-29T04:21:14.434Z,57.00
2023-04-29T04:23:50.016Z,58.11
2023-04-29T04:26:24.656Z,57.50
2023-04-29T04:29:30.957Z,57.60
2023-04-29T04:32:05.770Z,57.08
2023-04-29T04:34:36.616Z,57.18
2023-04-29T04:37:08.052Z,56.68
2023-04-29T04:39:41.460Z,57.50
2023-04-29T04:42:15.029Z,56.85
2023-04-29T04:44:46.178Z,56.83
2023-04-29T04:47:28.351Z,57.16
2023-04-29T04:50:05.556Z,57.06
2023-04-29T04:52:36.085Z,56.62
2023-04-29T04:55:18.618Z,56.96
2023-04-29T04:57:52.752Z,56.93
2023-04-29T05:00:24.174Z,56.83
2023-04-29T05:02:54.740Z,56.57
2023-04-29T05:05:25.530Z,57.05
2023-04-29T05:07:55.972Z,56.68
2023-04-29T05:10:35.413Z,56.75
2023-04-29T05:13:06.101Z,56.88
2023-04-29T05:15:37.923Z,57.14
2023-04-29T05:18:09.820Z,56.24
2023-04-29T05:20:41.212Z,56.13
2023-04-29T05:23:11.818Z,56.19
2023-04-29T05:25:43.948Z,55.96
2023-04-29T05:28:14.587Z,56.08
2023-04-29T05:30:45.334Z,56.80
2023-04-29T05:33:16.007Z,56.13
2023-04-29T05:35:47.073Z,56.78
2023-04-29T05:38:18.152Z,56.44
2023-04-29T05:40:59.128Z,56.71
2023-04-29T05:43:30.367Z,56.63
2023-04-29T05:46:01.159Z,56.35
2023-04-29T05:48:32.220Z,56.59
2023-04-29T05:51:03.043Z,56.24
2023-04-29T05:53:35.843Z,55.92
2023-04-29T05:56:09.716Z,56.20
2023-04-29T05:58:41.571Z,56.36
2023-04-29T06:01:12.123Z,55.94
2023-04-29T06:03:43.355Z,55.92
2023-04-29T06:06:34.411Z,56.16
2023-04-29T06:09:13.329Z,56.10
2023-04-29T06:11:50.932Z,55.89
2023-04-29T06:14:23.893Z,55.40
2023-04-29T06:16:55.602Z,55.72
2023-04-29T06:19:27.616Z,55.17
2023-04-29T06:21:58.728Z,55.71
2023-04-29T06:24:29.196Z,54.90
2023-04-29T06:27:00.417Z,54.56
2023-04-29T06:29:30.972Z,55.74
2023-04-29T06:32:01.423Z,55.18
2023-04-29T06:34:32.195Z,55.34
2023-04-29T06:37:24.497Z,55.10
2023-04-29T06:40:29.947Z,54.95
2023-04-29T06:43:09.664Z,55.32
2023-04-29T06:45:54.900Z,54.77
2023-04-29T06:48:46.159Z,55.13
2023-04-29T06:51:17.657Z,54.62
2023-04-29T06:53:49.721Z,54.08
2023-04-29T06:56:23.365Z,53.83
2023-04-29T06:58:53.827Z,54.35
2023-04-29T07:01:24.718Z,53.78
2023-04-29T07:03:55.376Z,53.40
2023-04-29T07:06:25.941Z,54.64
2023-04-29T07:08:57.328Z,53.47
2023-04-29T07:11:29.227Z,53.06
2023-04-29T07:13:59.614Z,53.70
2023-04-29T07:16:33.292Z,54.03
2023-04-29T07:19:03.658Z,53.47
2023-04-29T07:21:34.183Z,53.09
2023-04-29T07:24:06.444Z,53.11
2023-04-29T07:26:37.194Z,53.53
2023-04-29T07:29:09.950Z,52.80
2023-04-29T07:31:40.515Z,52.97
2023-04-29T07:34:11.407Z,52.39
2023-04-29T07:36:42.011Z,53.46
2023-04-29T07:39:13.984Z,52.96
2023-04-29T07:41:46.418Z,52.26
2023-04-29T07:44:17.026Z,52.47
2023-04-29T07:46:48.338Z,52.43
2023-04-29T07:49:19.169Z,52.41
2023-04-29T07:51:49.726Z,52.82
2023-04-29T07:54:21.161Z,52.91
2023-04-29T07:56:52.053Z,52.57
2023-04-29T07:59:23.626Z,52.61
2023-04-29T08:01:55.161Z,52.37
2023-04-29T08:04:26.757Z,51.63
2023-04-29T08:07:11.082Z,52.15
2023-04-29T08:09:42.383Z,51.80
2023-04-29T08:12:13.766Z,52.05
2023-04-29T08:14:44.170Z,52.05
2023-04-29T08:17:14.538Z,50.40
2023-04-29T08:19:45.169Z,51.25
2023-04-29T08:22:16.179Z,51.26
2023-04-29T08:24:46.792Z,51.60
2023-04-29T08:27:17.367Z,51.02
2023-04-29T08:29:47.829Z,51.69
2023-04-29T08:32:19.261Z,51.31
2023-04-29T08:34:49.829Z,50.90
2023-04-29T08:37:20.268Z,50.79
2023-04-29T08:39:50.681Z,50.91
2023-04-29T08:42:36.549Z,50.80
2023-04-29T08:45:07.786Z,51.70
2023-04-29T08:47:38.823Z,50.92
2023-04-29T08:50:11.095Z,50.82
2023-04-29T08:52:42.261Z,50.71
2023-04-29T08:55:12.808Z,50.64
2023-04-29T08:57:45.329Z,50.78
2023-04-29T09:00:16.120Z,51.00
2023-04-29T09:02:51.776Z,51.05
2023-04-29T09:05:23.322Z,50.71
2023-04-29T09:07:54.997Z,51.20
2023-04-29T09:10:25.867Z,50.26
2023-04-29T09:12:59.904Z,50.32
2023-04-29T09:15:31.283Z,50.35
2023-04-29T09:18:01.704Z,50.79
2023-04-29T09:20:32.788Z,50.71
2023-04-29T09:23:06.254Z,50.98
2023-04-29T09:25:37.951Z,50.47
2023-04-29T09:28:20.969Z,51.05
2023-04-29T09:30:52.207Z,50.64
2023-04-29T09:33:22.561Z,50.32
2023-04-29T09:35:53.076Z,50.58
2023-04-29T09:38:23.641Z,49.82
2023-04-29T09:40:59.468Z,50.00
2023-04-29T09:43:30.332Z,49.99
2023-04-29T09:46:00.909Z,50.63
2023-04-29T09:48:35.654Z,49.97
2023-04-29T09:51:06.223Z,50.64
2023-04-29T09:53:39.671Z,49.91
2023-04-29T09:56:10.850Z,50.19
2023-04-29T09:58:41.861Z,50.70
2023-04-29T10:01:14.759Z,49.89
2023-04-29T10:03:45.849Z,50.64
2023-04-29T10:06:19.281Z,49.69
2023-04-29T10:08:51.254Z,49.56
2023-04-29T10:11:23.232Z,49.87
2023-04-29T10:13:54.341Z,50.22
2023-04-29T10:16:36.612Z,49.80
2023-04-29T10:19:15.087Z,49.56
2023-04-29T10:21:45.518Z,50.23
2023-04-29T10:24:16.828Z,50.17
2023-04-29T10:26:49.113Z,49.86
2023-04-29T10:29:20.925Z,49.81
2023-04-29T10:31:52.964Z,49.64
2023-04-29T10:34:24.121Z,50.07
2023-04-29T10:36:55.429Z,49.48
2023-04-29T10:39:45.936Z,49.29
2023-04-29T10:42:45.832Z,49.15
2023-04-29T10:45:36.991Z,49.30
2023-04-29T10:48:10.735Z,49.87
2023-04-29T10:50:50.222Z,49.43
2023-04-29T10:53:22.097Z,49.60
2023-04-29T10:56:01.436Z,49.38
2023-04-29T10:58:43.715Z,49.57
2023-04-29T11:01:16.973Z,49.26
2023-04-29T11:04:00.910Z,49.13
2023-04-29T11:06:37.492Z,48.79
2023-04-29T11:09:22.884Z,49.00
2023-04-29T11:12:03.368Z,49.46
2023-04-29T11:14:54.517Z,49.91
2023-04-29T11:17:28.312Z,49.15
2023-04-29T11:19:59.204Z,49.80
2023-04-29T11:22:35.267Z,48.91
2023-04-29T11:25:10.641Z,48.93
2023-04-29T11:27:44.610Z,48.72
2023-04-29T11:30:18.309Z,48.84
2023-04-29T11:32:51.958Z,49.16
2023-04-29T11:35:21.972Z,49.58
2023-04-29T11:37:54.643Z,49.19
2023-04-29T11:40:25.334Z,49.50
2023-04-29T11:42:56.306Z,49.11
2023-04-29T11:45:27.431Z,48.58
2023-04-29T11:47:57.860Z,49.02
2023-04-29T11:50:28.893Z,49.46
2023-04-29T11:53:00.638Z,48.40
2023-04-29T11:55:31.176Z,48.81
2023-04-29T11:58:01.579Z,48.98
2023-04-29T12:00:33.621Z,48.93
2023-04-29T12:03:04.142Z,48.93
2023-04-29T12:05:35.461Z,48.93
2023-04-29T12:08:09.570Z,48.37
2023-04-29T12:10:39.957Z,48.57
2023-04-29T12:13:11.546Z,47.81
2023-04-29T12:15:43.092Z,48.80
2023-04-29T12:18:13.918Z,48.95
2023-04-29T12:20:44.527Z,49.07
2023-04-29T12:23:20.528Z,48.06
2023-04-29T12:26:02.062Z,49.14
2023-04-29T12:28:32.671Z,47.41
2023-04-29T12:31:03.381Z,48.10
2023-04-29T12:33:34.276Z,48.68
2023-04-29T12:36:05.844Z,48.04
2023-04-29T12:38:36.532Z,48.56
2023-04-29T12:41:09.379Z,48.54
2023-04-29T12:43:39.918Z,48.25
2023-04-29T12:46:11.622Z,48.10
2023-04-29T12:48:45.046Z,47.92
2023-04-29T12:51:15.714Z,47.79
2023-04-29T12:53:46.169Z,48.71
2023-04-29T12:56:17.546Z,48.41
2023-04-29T12:58:47.980Z,48.05
2023-04-29T13:01:19.602Z,48.17
2023-04-29T13:03:51.089Z,48.28
2023-04-29T13:06:21.915Z,48.04
2023-04-29T13:08:53.456Z,48.32
2023-04-29T13:11:23.976Z,47.64
2023-04-29T13:13:54.237Z,46.92
2023-04-29T13:16:26.217Z,47.37
2023-04-29T13:19:08.787Z,47.78
2023-04-29T13:21:43.355Z,47.84
2023-04-29T13:24:14.374Z,47.68
2023-04-29T13:26:44.756Z,48.68
2023-04-29T13:29:15.367Z,47.44
2023-04-29T13:31:46.421Z,48.09
2023-04-29T13:34:17.176Z,47.22
2023-04-29T13:36:48.403Z,47.23
2023-04-29T13:39:20.037Z,48.15
2023-04-29T13:41:51.770Z,47.25
2023-04-29T13:44:32.859Z,47.62
2023-04-29T13:47:11.169Z,48.25
2023-04-29T13:50:22.594Z,48.12
2023-04-29T13:55:54.354Z,47.82
2023-04-29T14:01:01.947Z,48.21
2023-04-29T14:03:21.769Z,47.59
2023-04-29T14:05:52.900Z,47.45
2023-04-29T14:08:23.408Z,47.72
2023-04-29T14:10:53.832Z,47.62
2023-04-29T14:13:24.212Z,47.55
2023-04-29T14:15:56.146Z,48.06
2023-04-29T14:18:26.542Z,47.96
2023-04-29T14:20:57.140Z,47.73
2023-04-29T14:23:28.008Z,47.56
2023-04-29T14:26:16.669Z,48.17
2023-04-29T14:28:49.236Z,47.37
2023-04-29T14:31:20.097Z,47.90
2023-04-29T14:33:52.704Z,47.35
2023-04-29T14:36:23.303Z,47.18
2023-04-29T14:38:54.465Z,47.50
2023-04-29T14:41:24.978Z,48.40
2023-04-29T14:43:55.740Z,47.43
2023-04-29T14:46:26.765Z,48.29
2023-04-29T14:48:57.638Z,47.50
2023-04-29T14:51:28.880Z,46.97
2023-04-29T14:53:59.361Z,48.45
2023-04-29T14:56:30.438Z,48.16
2023-04-29T14:59:00.881Z,48.12
2023-04-29T15:01:32.233Z,48.09
2023-04-29T15:04:03.508Z,47.66
2023-04-29T15:06:38.284Z,47.71
2023-04-29T15:09:09.510Z,47.94
2023-04-29T15:11:39.880Z,47.42
2023-04-29T15:14:10.545Z,47.55
2023-04-29T15:16:40.833Z,47.22
2023-04-29T15:19:11.209Z,48.22
2023-04-29T15:21:41.443Z,48.09
2023-04-29T15:24:12.025Z,47.51
2023-04-29T15:26:42.508Z,47.42
2023-04-29T15:29:13.372Z,47.97
2023-04-29T15:31:44.545Z,47.68
2023-04-29T15:34:14.939Z,47.42
2023-04-29T15:36:45.724Z,47.96
2023-04-29T15:39:16.528Z,48.00
2023-04-29T15:41:46.908Z,47.38
2023-04-29T15:44:17.263Z,48.32
2023-04-29T15:46:47.647Z,47.06
2023-04-29T15:49:18.186Z,47.34
2023-04-29T15:51:48.564Z,47.80
2023-04-29T15:54:18.945Z,48.04
2023-04-29T15:56:49.502Z,48.13
2023-04-29T15:59:19.875Z,47.11
2023-04-29T16:01:50.272Z,47.42
2023-04-29T16:04:20.906Z,47.22
2023-04-29T16:06:51.398Z,47.49
2023-04-29T16:09:22.991Z,47.70
2023-04-29T16:11:55.122Z,47.92
2023-04-29T16:14:25.585Z,48.16
2023-04-29T16:16:56.970Z,47.49
2023-04-29T16:19:27.416Z,47.83
2023-04-29T16:21:58.226Z,47.94
2023-04-29T16:24:28.988Z,47.95
2023-04-29T16:27:00.432Z,47.82
2023-04-29T16:29:30.802Z,47.29
2023-04-29T16:32:02.118Z,47.20
2023-04-29T16:34:32.523Z,48.33
2023-04-29T16:37:03.134Z,47.54
2023-04-29T16:39:33.840Z,47.78
2023-04-29T16:42:04.698Z,47.42
2023-04-29T16:44:35.424Z,48.08
2023-04-29T16:47:06.129Z,48.05
2023-04-29T16:49:36.633Z,47.98
2023-04-29T16:52:07.140Z,47.12
2023-04-29T16:54:38.014Z,46.98
2023-04-29T16:57:08.500Z,46.82
2023-04-29T16:59:39.029Z,47.77
2023-04-29T17:02:09.985Z,47.41
2023-04-29T17:04:40.812Z,47.59
2023-04-29T17:07:11.341Z,46.86
2023-04-29T17:09:42.056Z,46.99
2023-04-29T17:12:12.493Z,47.21
2023-04-29T17:14:42.878Z,47.78
2023-04-29T17:17:13.581Z,48.08
2023-04-29T17:19:43.989Z,47.55
2023-04-29T17:22:16.499Z,47.45
2023-04-29T17:24:47.560Z,48.06
2023-04-29T17:27:18.874Z,47.69
2023-04-29T17:29:49.231Z,47.53
2023-04-29T17:32:26.796Z,46.81
2023-04-29T17:35:01.658Z,47.52
2023-04-29T17:37:32.998Z,47.16
2023-04-29T17:40:03.699Z,47.85
2023-04-29T17:42:34.241Z,48.05
2023-04-29T17:45:04.677Z,46.81
2023-04-29T17:47:35.700Z,47.20
2023-04-29T17:50:06.143Z,47.00
2023-04-29T17:52:36.606Z,46.77
2023-04-29T17:55:07.631Z,47.00
2023-04-29T17:57:39.670Z,48.09
2023-04-29T18:00:10.763Z,47.43
2023-04-29T18:02:41.994Z,47.09
2023-04-29T18:05:12.543Z,46.91
2023-04-29T18:07:43.476Z,47.28
2023-04-29T18:10:13.743Z,46.77
2023-04-29T18:12:44.305Z,48.07
2023-04-29T18:15:17.870Z,46.70
2023-04-29T18:17:48.467Z,46.79
2023-04-29T18:20:19.539Z,47.76
2023-04-29T18:22:51.210Z,47.49
2023-04-29T18:25:21.656Z,46.61
2023-04-29T18:27:56.998Z,47.80
2023-04-29T18:30:30.584Z,47.68
2023-04-29T18:33:01.207Z,46.65
2023-04-29T18:35:31.644Z,47.78
2023-04-29T18:38:02.685Z,47.19
2023-04-29T18:40:33.742Z,46.83
2023-04-29T18:43:04.766Z,47.79
2023-04-29T18:45:35.377Z,47.80
2023-04-29T18:48:08.232Z,47.05
2023-04-29T18:50:38.787Z,46.88
2023-04-29T18:53:10.058Z,47.19
2023-04-29T18:55:40.561Z,46.64
2023-04-29T18:58:11.835Z,47.95
2023-04-29T19:00:42.594Z,46.80
2023-04-29T19:03:13.177Z,47.49
2023-04-29T19:05:43.604Z,47.34
2023-04-29T19:08:17.708Z,46.64
2023-04-29T19:10:48.213Z,46.99
2023-04-29T19:13:19.518Z,47.12
2023-04-29T19:15:52.268Z,47.13
2023-04-29T19:18:24.630Z,47.53
2023-04-29T19:20:55.886Z,47.47
2023-04-29T19:23:26.231Z,47.79
2023-04-29T19:25:56.833Z,47.93
2023-04-29T19:28:27.257Z,47.62
2023-04-29T19:30:58.232Z,47.04
2023-04-29T19:33:28.706Z,46.64
2023-04-29T19:35:59.245Z,47.36
2023-04-29T19:38:30.598Z,47.89
2023-04-29T19:41:01.166Z,47.15
2023-04-29T19:43:31.674Z,46.93
2023-04-29T19:46:02.180Z,47.54
2023-04-29T19:48:33.479Z,47.21
2023-04-29T19:51:03.841Z,47.42
2023-04-29T19:53:34.112Z,47.59
2023-04-29T19:56:04.491Z,46.36
2023-04-29T19:58:35.517Z,46.63
2023-04-29T20:01:06.001Z,47.26
2023-04-29T20:03:38.931Z,47.37
2023-04-29T20:06:10.325Z,46.84
2023-04-29T20:08:40.824Z,46.35
2023-04-29T20:11:11.252Z,47.27
2023-04-29T20:13:42.192Z,47.14
2023-04-29T20:16:12.923Z,47.67
2023-04-29T20:18:43.447Z,46.85
2023-04-29T20:21:13.966Z,47.63
2023-04-29T20:23:44.488Z,47.30
2023-04-29T20:26:16.081Z,46.47
2023-04-29T20:28:47.349Z,47.50
2023-04-29T20:31:18.619Z,47.18
2023-04-29T20:33:48.967Z,47.53
2023-04-29T20:36:19.347Z,47.80
2023-04-29T20:38:50.665Z,47.02
2023-04-29T20:41:21.077Z,46.69
2023-04-29T20:43:51.577Z,47.85
2023-04-29T20:46:24.040Z,47.86
2023-04-29T20:48:55.750Z,46.83
2023-04-29T20:51:28.076Z,46.73
2023-04-29T20:53:58.461Z,47.78
2023-04-29T20:56:29.708Z,46.52
2023-04-29T20:59:01.069Z,47.65
2023-04-29T21:01:32.099Z,46.83
2023-04-29T21:04:02.655Z,47.47
2023-04-29T21:06:34.054Z,47.66
2023-04-29T21:09:04.272Z,47.73
2023-04-29T21:11:34.903Z,46.39
2023-04-29T21:14:05.330Z,47.01
2023-04-29T21:16:36.748Z,46.79
2023-04-29T21:19:06.934Z,46.60
2023-04-29T21:21:37.557Z,46.58
2023-04-29T21:24:08.418Z,47.87
2023-04-29T21:26:38.979Z,47.77
2023-04-29T21:29:09.418Z,47.77
2023-04-29T21:31:39.844Z,47.38
2023-04-29T21:34:10.247Z,47.37
2023-04-29T21:36:40.647Z,47.03
2023-04-29T21:39:11.566Z,47.91
2023-04-29T21:41:43.379Z,46.95
2023-04-29T21:44:14.744Z,48.17
2023-04-29T21:46:45.725Z,47.72
2023-04-29T21:49:16.164Z,47.43
2023-04-29T21:51:46.810Z,48.09
2023-04-29T21:54:17.133Z,47.14
2023-04-29T21:56:47.649Z,47.86
2023-04-29T21:59:17.850Z,47.94
2023-04-29T22:01:48.804Z,47.34
2023-04-29T22:04:19.339Z,48.18
2023-04-29T22:06:49.662Z,47.25
2023-04-29T22:09:20.176Z,47.63
2023-04-29T22:11:50.790Z,47.13
2023-04-29T22:14:21.937Z,47.54
2023-04-29T22:16:52.869Z,47.95
2023-04-29T22:19:23.229Z,48.26
2023-04-29T22:21:53.670Z,47.63
2023-04-29T22:24:24.691Z,48.38
2023-04-29T22:26:55.320Z,48.48
2023-04-29T22:29:26.848Z,47.72
2023-04-29T22:31:57.699Z,48.57
2023-04-29T22:34:29.237Z,48.76
2023-04-29T22:36:59.728Z,47.53
2023-04-29T22:39:30.265Z,47.52
2023-04-29T22:42:00.693Z,47.92
2023-04-29T22:44:31.048Z,48.17
2023-04-29T22:47:01.643Z,47.71
2023-04-29T22:49:32.176Z,48.62
2023-04-29T22:52:02.979Z,48.13
2023-04-29T22:54:33.618Z,48.80
2023-04-29T22:57:05.447Z,48.57
2023-04-29T22:59:36.050Z,49.26
2023-04-29T23:02:06.490Z,47.83
2023-04-29T23:04:36.976Z,48.72
2023-04-29T23:07:07.400Z,48.85
2023-04-29T23:09:37.763Z,48.96
2023-04-29T23:12:08.055Z,47.95
2023-04-29T23:14:38.414Z,47.93
2023-04-29T23:17:09.576Z,47.84
2023-04-29T23:19:40.224Z,47.90
2023-04-29T23:22:10.930Z,48.29
2023-04-29T23:24:41.785Z,48.52
2023-04-29T23:27:13.154Z,48.20
2023-04-29T23:29:43.525Z,49.07
2023-04-29T23:32:14.087Z,47.98
2023-04-29T23:34:44.453Z,48.32
2023-04-29T23:37:15.766Z,49.05
2023-04-29T23:39:46.255Z,49.01
2023-04-29T23:42:16.654Z,47.99
2023-04-29T23:44:47.669Z,48.52
2023-04-29T23:47:18.029Z,48.63
2023-04-29T23:49:48.863Z,48.10
2023-04-29T23:52:19.086Z,47.89
2023-04-29T23:54:49.687Z,48.80
2023-04-29T23:57:19.877Z,48.44
2023-04-29T23:59:50.222Z,48.22
